createdAt,value
2023-03-23T16:01:40.526Z,1.83
2023-03-23T16:06:44.142Z,1.60
2023-03-23T16:11:46.431Z,1.80
2023-03-23T16:16:53.051Z,1.50
2023-03-23T16:21:55.401Z,1.70
2023-03-23T16:26:57.664Z,1.70
2023-03-23T16:31:59.760Z,2.00
2023-03-23T16:37:02.727Z,2.17
2023-03-23T16:42:04.862Z,2.10
2023-03-23T16:47:06.995Z,2.57
2023-03-23T16:52:09.327Z,1.63
2023-03-23T16:57:12.263Z,1.93
2023-03-23T17:02:14.506Z,1.70
2023-03-23T17:07:16.768Z,2.07
2023-03-23T17:12:19.044Z,2.00
2023-03-23T17:17:21.179Z,1.93
2023-03-23T17:22:23.954Z,1.70
2023-03-23T17:27:26.673Z,2.03
2023-03-23T17:32:29.163Z,3.10
2023-03-23T17:37:31.891Z,2.60
2023-03-23T17:42:34.517Z,2.30
2023-03-23T17:47:37.181Z,2.10
2023-03-23T17:52:39.866Z,2.83
2023-03-23T17:57:43.378Z,2.10
2023-03-23T18:02:47.053Z,2.00
2023-03-23T18:07:49.418Z,1.90
2023-03-23T18:12:51.675Z,1.67
2023-03-23T18:17:53.896Z,2.00
2023-03-23T18:22:57.789Z,2.90
2023-03-23T18:28:05.325Z,2.20
2023-03-23T18:33:09.319Z,2.90
2023-03-23T18:38:12.993Z,2.27
2023-03-23T18:43:15.232Z,2.00
2023-03-23T18:48:17.509Z,1.80
2023-03-23T18:53:21.207Z,1.90
2023-03-23T18:58:23.444Z,2.13
2023-03-23T19:03:26.411Z,2.40
2023-03-23T19:08:30.225Z,2.10
2023-03-23T19:13:37.560Z,1.83
2023-03-23T19:18:41.217Z,1.77
2023-03-23T19:23:43.677Z,2.10
2023-03-23T19:29:21.481Z,1.60
2023-03-23T19:34:08.747Z,2.17
2023-03-23T19:39:11.380Z,1.70
2023-03-23T19:44:13.828Z,1.27
2023-03-23T19:49:16.338Z,1.50
2023-03-23T19:54:19.110Z,1.80
2023-03-23T19:59:21.225Z,1.33
2023-03-23T20:04:24.307Z,1.50
2023-03-23T20:09:27.427Z,2.00
2023-03-23T20:14:30.337Z,1.70
2023-03-23T20:19:32.607Z,1.43
2023-03-23T20:24:34.904Z,1.70
2023-03-23T20:29:37.071Z,1.60
2023-03-23T20:34:39.269Z,1.50
2023-03-23T20:39:42.411Z,1.17
2023-03-23T20:44:44.812Z,1.80
2023-03-23T20:49:53.067Z,1.80
2023-03-23T20:54:56.487Z,1.37
2023-03-23T20:59:59.112Z,1.30
2023-03-23T21:05:04.919Z,1.20
2023-03-23T21:10:07.371Z,1.00
2023-03-23T21:15:10.202Z,1.40
2023-03-23T21:20:12.766Z,1.73
2023-03-23T21:25:15.343Z,1.40
2023-03-23T21:30:20.714Z,1.57
2023-03-23T21:35:23.168Z,1.50
2023-03-23T21:40:25.271Z,1.23
2023-03-23T21:45:29.086Z,1.43
2023-03-23T21:50:35.637Z,1.43
2023-03-23T21:55:37.940Z,1.47
2023-03-23T22:00:41.466Z,1.40
2023-03-23T22:05:43.764Z,1.40
2023-03-23T22:11:00.390Z,1.33
2023-03-23T22:16:07.980Z,1.50
2023-03-23T22:21:10.807Z,1.20
2023-03-23T22:26:16.708Z,1.33
2023-03-23T22:31:27.497Z,1.17
2023-03-23T22:36:33.154Z,1.23
2023-03-23T22:41:39.821Z,1.20
2023-03-23T22:46:42.770Z,1.70
2023-03-23T22:51:45.634Z,1.47
2023-03-23T22:56:48.067Z,1.80
2023-03-23T23:01:50.285Z,1.37
2023-03-23T23:07:00.385Z,1.37
2023-03-23T23:12:10.574Z,1.60
2023-03-23T23:17:12.699Z,1.20
2023-03-23T23:22:19.261Z,1.30
2023-03-23T23:27:22.030Z,1.30
2023-03-23T23:32:25.330Z,1.30
2023-03-23T23:37:27.922Z,1.27
2023-03-23T23:42:30.139Z,1.10
2023-03-23T23:47:32.470Z,1.23
2023-03-23T23:52:36.781Z,1.50
2023-03-23T23:57:39.423Z,1.40
